createdAt,value
2018-12-13T00:00:51.712Z,7.58
2018-12-13T00:01:51.650Z,7.63
2018-12-13T00:02:51.591Z,7.63
2018-12-13T00:03:51.536Z,7.62
2018-12-13T00:04:51.469Z,7.56
2018-12-13T00:05:51.410Z,7.60
2018-12-13T00:06:51.348Z,7.56
2018-12-13T00:07:51.288Z,7.55
2018-12-13T00:08:51.235Z,7.56
2018-12-13T00:09:51.166Z,7.66
2018-12-13T00:10:51.107Z,7.66
2018-12-13T00:11:51.045Z,7.60
2018-12-13T00:12:50.986Z,7.63
2018-12-13T00:13:50.923Z,7.59
2018-12-13T00:14:50.862Z,7.56
2018-12-13T00:15:50.803Z,7.56
2018-12-13T00:16:50.743Z,7.59
2018-12-13T00:17:50.681Z,7.52
2018-12-13T00:18:50.621Z,7.58
2018-12-13T00:19:50.561Z,7.62
2018-12-13T00:20:50.501Z,7.63
2018-12-13T00:21:50.438Z,7.59
2018-12-13T00:22:50.378Z,7.55
2018-12-13T00:23:50.374Z,7.58
2018-12-13T00:24:50.258Z,7.59
2018-12-13T00:25:50.197Z,7.59
2018-12-13T00:26:50.135Z,7.56
2018-12-13T00:27:50.077Z,7.56
2018-12-13T00:28:50.015Z,7.56
2018-12-13T00:29:49.954Z,7.63
2018-12-13T00:30:49.894Z,7.59
2018-12-13T00:31:49.833Z,7.56
2018-12-13T00:32:49.772Z,7.53
2018-12-13T00:33:49.712Z,7.53
2018-12-13T00:34:49.650Z,7.58
2018-12-13T00:35:49.590Z,7.59
2018-12-13T00:36:49.531Z,7.56
2018-12-13T00:37:49.469Z,7.52
2018-12-13T00:38:49.413Z,7.52
2018-12-13T00:39:49.349Z,7.56
2018-12-13T00:40:49.289Z,7.56
2018-12-13T00:41:49.226Z,7.56
2018-12-13T00:42:49.166Z,7.53
2018-12-13T00:43:49.107Z,7.53
2018-12-13T00:44:49.046Z,7.50
2018-12-13T00:45:48.983Z,7.62
2018-12-13T00:46:48.927Z,7.60
2018-12-13T00:47:48.875Z,7.59
2018-12-13T00:48:48.806Z,7.62
2018-12-13T00:49:48.741Z,7.59
2018-12-13T00:50:48.684Z,7.53
2018-12-13T00:51:48.624Z,7.55
2018-12-13T00:52:48.568Z,7.53
2018-12-13T00:53:48.501Z,7.55
2018-12-13T00:54:48.441Z,7.56
2018-12-13T00:55:48.380Z,7.52
2018-12-13T00:56:48.318Z,7.41
2018-12-13T00:57:48.256Z,7.49
2018-12-13T00:58:48.267Z,7.47
2018-12-13T00:59:48.136Z,7.50
2018-12-13T01:00:48.076Z,7.49
2018-12-13T01:01:48.014Z,7.44
2018-12-13T01:02:47.954Z,7.44
2018-12-13T01:03:47.894Z,7.44
2018-12-13T01:04:47.838Z,7.45
2018-12-13T01:05:47.805Z,7.42
2018-12-13T01:06:47.714Z,7.49
2018-12-13T01:07:47.650Z,7.50
2018-12-13T01:08:47.591Z,7.42
2018-12-13T01:09:47.529Z,7.44
2018-12-13T01:10:47.469Z,7.45
2018-12-13T01:11:47.408Z,7.44
2018-12-13T01:12:47.349Z,7.47
2018-12-13T01:13:47.286Z,7.41
2018-12-13T01:14:47.226Z,7.38
2018-12-13T01:15:47.168Z,7.44
2018-12-13T01:16:47.107Z,7.44
2018-12-13T01:17:47.045Z,7.49
2018-12-13T01:18:46.986Z,7.44
2018-12-13T01:19:46.924Z,7.42
2018-12-13T01:20:46.863Z,7.45
2018-12-13T01:21:46.801Z,7.42
2018-12-13T01:22:46.743Z,7.45
2018-12-13T01:23:46.683Z,7.41
2018-12-13T01:24:46.621Z,7.41
2018-12-13T01:25:46.559Z,7.41
2018-12-13T01:26:46.500Z,7.41
2018-12-13T01:27:46.442Z,7.38
2018-12-13T01:28:46.378Z,7.40
2018-12-13T01:29:46.316Z,7.40
2018-12-13T01:30:46.256Z,7.40
2018-12-13T01:31:46.201Z,7.40
2018-12-13T01:32:46.135Z,7.35
2018-12-13T01:33:46.078Z,7.44
2018-12-13T01:34:46.013Z,7.42
2018-12-13T01:35:45.952Z,7.32
2018-12-13T01:36:52.267Z,7.45
2018-12-13T01:37:45.833Z,7.40
2018-12-13T01:38:45.770Z,7.32
2018-12-13T01:39:45.710Z,7.45
2018-12-13T01:40:45.652Z,7.35
2018-12-13T01:41:45.588Z,7.37
2018-12-13T01:42:45.529Z,7.35
2018-12-13T01:43:45.467Z,7.32
2018-12-13T01:44:45.406Z,7.34
2018-12-13T01:45:45.347Z,7.40
2018-12-13T01:46:45.287Z,7.34
2018-12-13T01:47:45.224Z,7.38
2018-12-13T01:48:45.165Z,7.35
2018-12-13T01:49:45.103Z,7.38
2018-12-13T01:50:45.042Z,7.35
2018-12-13T01:51:44.982Z,7.34
2018-12-13T01:52:44.921Z,7.27
2018-12-13T01:53:44.859Z,7.35
2018-12-13T01:54:44.875Z,7.34
2018-12-13T01:55:44.740Z,7.34
2018-12-13T01:56:44.682Z,7.37
2018-12-13T01:57:44.619Z,7.40
2018-12-13T01:58:44.559Z,7.31
2018-12-13T01:59:44.497Z,7.32
2018-12-13T02:00:44.439Z,7.32
2018-12-13T02:01:44.378Z,7.34
2018-12-13T02:02:44.313Z,7.24
2018-12-13T02:03:44.253Z,7.32
2018-12-13T02:04:44.192Z,7.27
2018-12-13T02:05:44.132Z,7.29
2018-12-13T02:06:44.069Z,7.29
2018-12-13T02:07:44.009Z,7.27
2018-12-13T02:08:43.950Z,7.38
2018-12-13T02:09:43.888Z,7.41
2018-12-13T02:10:43.826Z,7.24
2018-12-13T02:11:43.767Z,7.34
2018-12-13T02:12:43.706Z,7.24
2018-12-13T02:13:43.645Z,7.32
2018-12-13T02:14:43.584Z,7.34
2018-12-13T02:15:43.523Z,7.34
2018-12-13T02:16:43.462Z,7.37
2018-12-13T02:17:43.401Z,7.34
2018-12-13T02:18:43.340Z,7.32
2018-12-13T02:19:43.280Z,7.35
2018-12-13T02:20:43.219Z,7.29
2018-12-13T02:21:43.158Z,7.26
2018-12-13T02:22:43.098Z,7.23
2018-12-13T02:23:43.136Z,7.24
2018-12-13T02:24:42.977Z,7.32
2018-12-13T02:25:42.915Z,7.23
2018-12-13T02:26:42.855Z,7.38
2018-12-13T02:27:42.795Z,7.38
2018-12-13T02:28:42.733Z,7.23
2018-12-13T02:29:42.673Z,7.26
2018-12-13T02:30:42.613Z,7.27
2018-12-13T02:31:42.553Z,7.23
2018-12-13T02:32:42.490Z,7.23
2018-12-13T02:33:42.429Z,7.27
2018-12-13T02:34:42.367Z,7.23
2018-12-13T02:35:42.309Z,7.23
2018-12-13T02:36:42.248Z,7.23
2018-12-13T02:37:42.185Z,7.23
2018-12-13T02:38:42.219Z,7.29
2018-12-13T02:39:42.064Z,7.23
2018-12-13T02:40:42.003Z,7.27
2018-12-13T02:41:41.942Z,7.23
2018-12-13T02:42:41.882Z,7.20
2018-12-13T02:43:41.820Z,7.23
2018-12-13T02:44:41.760Z,7.23
2018-12-13T02:45:41.699Z,7.22
2018-12-13T02:46:41.637Z,7.22
2018-12-13T02:47:41.579Z,7.19
2018-12-13T02:48:41.519Z,7.20
2018-12-13T02:49:41.455Z,7.29
2018-12-13T02:50:41.454Z,7.24
2018-12-13T02:51:41.334Z,7.23
2018-12-13T02:52:41.336Z,7.17
2018-12-13T02:53:41.213Z,7.20
2018-12-13T02:54:41.152Z,7.20
2018-12-13T02:55:41.091Z,7.23
2018-12-13T02:56:41.032Z,7.17
2018-12-13T02:57:40.967Z,7.20
2018-12-13T02:58:40.908Z,7.20
2018-12-13T02:59:40.849Z,7.24
2018-12-13T03:00:40.787Z,7.22
2018-12-13T03:01:40.725Z,7.23
2018-12-13T03:02:40.667Z,7.26
2018-12-13T03:03:40.603Z,7.22
2018-12-13T03:04:40.555Z,7.12
2018-12-13T03:05:40.484Z,7.16
2018-12-13T03:06:40.422Z,7.13
2018-12-13T03:07:40.361Z,7.12
2018-12-13T03:08:40.302Z,7.23
2018-12-13T03:09:40.238Z,7.22
2018-12-13T03:10:40.178Z,7.23
2018-12-13T03:11:40.119Z,7.23
2018-12-13T03:12:40.057Z,7.23
2018-12-13T03:13:39.999Z,7.19
2018-12-13T03:14:39.937Z,7.19
2018-12-13T03:15:39.948Z,7.13
2018-12-13T03:16:39.813Z,7.20
2018-12-13T03:17:39.752Z,7.20
2018-12-13T03:18:39.695Z,7.22
2018-12-13T03:19:39.631Z,7.20
2018-12-13T03:20:39.577Z,7.20
2018-12-13T03:21:39.509Z,7.17
2018-12-13T03:22:39.447Z,7.19
2018-12-13T03:23:39.387Z,7.17
2018-12-13T03:24:39.328Z,7.17
2018-12-13T03:25:39.266Z,7.17
2018-12-13T03:26:39.207Z,7.08
2018-12-13T03:27:39.147Z,7.08
2018-12-13T03:28:39.195Z,7.08
2018-12-13T03:29:39.044Z,7.05
2018-12-13T03:30:38.966Z,7.07
2018-12-13T03:31:39.011Z,7.07
2018-12-13T03:32:38.845Z,7.15
2018-12-13T03:33:38.780Z,7.09
2018-12-13T03:34:38.718Z,7.17
2018-12-13T03:35:38.662Z,7.08
2018-12-13T03:36:38.598Z,7.20
2018-12-13T03:37:38.538Z,7.16
2018-12-13T03:38:38.474Z,7.07
2018-12-13T03:39:38.413Z,7.08
2018-12-13T03:40:38.355Z,7.08
2018-12-13T03:41:38.291Z,7.07
2018-12-13T03:42:38.250Z,7.05
2018-12-13T03:43:38.177Z,7.12
2018-12-13T03:44:38.109Z,7.16
2018-12-13T03:45:38.047Z,7.09
2018-12-13T03:46:37.990Z,7.07
2018-12-13T03:47:37.926Z,7.08
2018-12-13T03:48:37.870Z,7.13
2018-12-13T03:49:37.803Z,7.07
2018-12-13T03:50:37.742Z,7.07
2018-12-13T03:51:37.683Z,7.09
2018-12-13T03:52:37.621Z,7.19
2018-12-13T03:53:37.560Z,7.09
2018-12-13T03:54:37.506Z,7.07
2018-12-13T03:55:37.438Z,7.05
2018-12-13T03:56:37.382Z,7.12
2018-12-13T03:57:37.317Z,7.09
2018-12-13T03:58:37.255Z,7.07
2018-12-13T03:59:37.196Z,7.07
2018-12-13T04:00:37.137Z,7.09
2018-12-13T04:01:37.073Z,7.04
2018-12-13T04:02:37.013Z,7.13
2018-12-13T04:03:36.951Z,7.07
2018-12-13T04:04:36.891Z,7.04
2018-12-13T04:05:36.829Z,7.13
2018-12-13T04:06:36.769Z,7.09
2018-12-13T04:07:36.709Z,7.09
2018-12-13T04:08:36.663Z,7.09
2018-12-13T04:09:36.586Z,7.12
2018-12-13T04:10:36.526Z,7.07
2018-12-13T04:11:36.463Z,7.12
2018-12-13T04:12:36.405Z,7.13
2018-12-13T04:13:36.342Z,7.13
2018-12-13T04:14:36.281Z,7.07
2018-12-13T04:15:36.219Z,7.13
2018-12-13T04:16:36.160Z,7.13
2018-12-13T04:17:36.097Z,7.07
2018-12-13T04:18:36.036Z,7.07
2018-12-13T04:19:35.977Z,7.07
2018-12-13T04:20:35.916Z,7.07
2018-12-13T04:21:35.854Z,6.91
2018-12-13T04:22:35.793Z,7.04
2018-12-13T04:23:35.732Z,7.08
2018-12-13T04:24:35.670Z,7.04
2018-12-13T04:25:35.610Z,7.07
2018-12-13T04:26:35.553Z,7.07
2018-12-13T04:27:35.489Z,7.08
2018-12-13T04:28:35.428Z,7.02
2018-12-13T04:29:35.367Z,7.08
2018-12-13T04:30:35.323Z,7.09
2018-12-13T04:31:35.243Z,7.08
2018-12-13T04:32:35.184Z,6.94
2018-12-13T04:33:35.123Z,7.04
2018-12-13T04:34:35.157Z,7.08
2018-12-13T04:35:35.000Z,7.12
2018-12-13T04:36:34.940Z,7.12
2018-12-13T04:37:35.379Z,7.01
2018-12-13T04:38:34.818Z,7.05
2018-12-13T04:39:34.757Z,7.01
2018-12-13T04:40:34.697Z,7.07
2018-12-13T04:41:34.634Z,7.07
2018-12-13T04:42:34.574Z,7.04
2018-12-13T04:43:34.512Z,7.04
2018-12-13T04:44:34.452Z,7.04
2018-12-13T04:45:34.389Z,7.01
2018-12-13T04:46:34.330Z,7.02
2018-12-13T04:47:34.268Z,6.94
2018-12-13T04:48:34.208Z,6.98
2018-12-13T04:49:34.147Z,7.05
2018-12-13T04:50:34.085Z,6.94
2018-12-13T04:51:34.026Z,6.94
2018-12-13T04:52:33.966Z,6.99
2018-12-13T04:53:33.902Z,6.98
2018-12-13T04:54:33.841Z,6.94
2018-12-13T04:55:33.780Z,7.02
2018-12-13T04:56:33.720Z,6.95
2018-12-13T04:57:33.675Z,7.04
2018-12-13T04:58:33.597Z,7.04
2018-12-13T04:59:33.536Z,7.02
2018-12-13T05:00:33.511Z,7.01
2018-12-13T05:01:33.414Z,6.97
2018-12-13T05:02:33.353Z,6.99
2018-12-13T05:03:33.292Z,7.01
2018-12-13T05:04:33.231Z,7.01
2018-12-13T05:05:33.170Z,6.94
2018-12-13T05:06:33.108Z,6.97
2018-12-13T05:07:33.049Z,6.94
2018-12-13T05:08:32.993Z,6.97
2018-12-13T05:09:32.929Z,6.99
2018-12-13T05:10:32.867Z,6.94
2018-12-13T05:11:32.806Z,6.95
2018-12-13T05:12:32.745Z,6.97
2018-12-13T05:13:32.681Z,6.98
2018-12-13T05:14:32.624Z,7.01
2018-12-13T05:15:32.560Z,6.98
2018-12-13T05:16:32.501Z,6.98
2018-12-13T05:17:32.437Z,6.98
2018-12-13T05:18:32.377Z,7.02
2018-12-13T05:19:32.317Z,6.97
2018-12-13T05:20:32.261Z,6.91
2018-12-13T05:21:32.194Z,6.99
2018-12-13T05:22:32.132Z,6.95
2018-12-13T05:23:32.073Z,6.99
2018-12-13T05:24:32.011Z,6.97
2018-12-13T05:25:31.949Z,6.94
2018-12-13T05:26:31.889Z,6.97
2018-12-13T05:27:31.828Z,6.95
2018-12-13T05:28:31.772Z,6.94
2018-12-13T05:29:31.705Z,7.01
2018-12-13T05:30:31.649Z,6.98
2018-12-13T05:31:31.584Z,7.01
2018-12-13T05:32:31.522Z,7.01
2018-12-13T05:33:31.462Z,6.95
2018-12-13T05:34:31.402Z,6.97
2018-12-13T05:35:31.346Z,6.91
2018-12-13T05:36:31.278Z,6.97
2018-12-13T05:37:31.299Z,6.99
2018-12-13T05:38:31.157Z,6.98
2018-12-13T05:39:31.098Z,7.02
2018-12-13T05:40:31.034Z,6.91
2018-12-13T05:41:30.974Z,6.95
2018-12-13T05:42:30.912Z,6.97
2018-12-13T05:43:30.853Z,6.97
2018-12-13T05:44:30.794Z,6.98
2018-12-13T05:45:30.729Z,6.98
2018-12-13T05:46:30.676Z,6.94
2018-12-13T05:47:30.608Z,6.97
2018-12-13T05:48:30.547Z,6.98
2018-12-13T05:49:30.488Z,6.99
2018-12-13T05:50:30.426Z,6.98
2018-12-13T05:51:30.363Z,6.94
2018-12-13T05:52:30.302Z,6.98
2018-12-13T05:53:30.247Z,6.97
2018-12-13T05:54:30.180Z,6.91
2018-12-13T05:55:30.121Z,6.94
2018-12-13T05:56:30.058Z,6.94
2018-12-13T05:57:29.996Z,6.94
2018-12-13T05:58:29.938Z,7.01
2018-12-13T05:59:29.875Z,6.98
2018-12-13T06:00:29.822Z,6.99
2018-12-13T06:01:29.754Z,6.91
2018-12-13T06:02:29.691Z,6.91
2018-12-13T06:03:29.630Z,6.91
2018-12-13T06:04:29.571Z,7.02
2018-12-13T06:05:29.507Z,6.87
2018-12-13T06:06:29.446Z,6.91
2018-12-13T06:07:29.390Z,6.97
2018-12-13T06:08:29.325Z,6.94
2018-12-13T06:09:29.268Z,6.99
2018-12-13T06:10:29.205Z,6.99
2018-12-13T06:11:29.142Z,6.97
2018-12-13T06:12:29.082Z,6.94
2018-12-13T06:13:29.019Z,6.91
2018-12-13T06:14:28.959Z,6.95
2018-12-13T06:15:28.898Z,6.97
2018-12-13T06:16:28.837Z,6.95
2018-12-13T06:17:28.777Z,6.91
2018-12-13T06:18:28.721Z,6.95
2018-12-13T06:19:28.655Z,6.94
2018-12-13T06:20:28.593Z,6.95
2018-12-13T06:21:28.534Z,6.97
2018-12-13T06:22:28.469Z,6.94
2018-12-13T06:23:28.413Z,6.94
2018-12-13T06:24:28.351Z,6.91
2018-12-13T06:25:28.289Z,6.91
2018-12-13T06:26:28.225Z,6.94
2018-12-13T06:27:28.167Z,6.95
2018-12-13T06:28:28.104Z,6.87
2018-12-13T06:29:28.042Z,6.91
2018-12-13T06:30:27.983Z,6.95
2018-12-13T06:31:27.920Z,6.91
2018-12-13T06:32:27.862Z,6.89
2018-12-13T06:33:28.345Z,6.89
2018-12-13T06:34:27.737Z,6.89
2018-12-13T06:35:27.678Z,6.87
2018-12-13T06:36:27.618Z,6.90
2018-12-13T06:37:27.554Z,6.95
2018-12-13T06:38:27.495Z,6.90
2018-12-13T06:39:27.434Z,6.91
2018-12-13T06:40:27.373Z,6.89
2018-12-13T06:41:27.313Z,6.90
2018-12-13T06:42:27.252Z,6.89
2018-12-13T06:43:27.188Z,6.83
2018-12-13T06:44:27.129Z,6.86
2018-12-13T06:45:27.067Z,6.83
2018-12-13T06:46:27.005Z,6.90
2018-12-13T06:47:26.944Z,6.84
2018-12-13T06:48:26.883Z,6.89
2018-12-13T06:49:27.639Z,6.90
2018-12-13T06:50:26.763Z,6.91
2018-12-13T06:51:26.700Z,6.89
2018-12-13T06:52:26.638Z,6.89
2018-12-13T06:53:26.578Z,6.90
2018-12-13T06:54:26.516Z,6.87
2018-12-13T06:55:26.456Z,6.86
2018-12-13T06:56:26.393Z,6.87
2018-12-13T06:57:26.333Z,6.89
2018-12-13T06:58:26.270Z,6.91
2018-12-13T06:59:26.211Z,6.87
2018-12-13T07:00:26.149Z,6.87
2018-12-13T07:01:26.087Z,6.86
2018-12-13T07:02:26.026Z,6.90
2018-12-13T07:03:25.965Z,6.87
2018-12-13T07:04:25.904Z,6.86
2018-12-13T07:05:25.844Z,6.86
2018-12-13T07:06:25.782Z,6.90
2018-12-13T07:07:25.720Z,6.87
2018-12-13T07:08:25.659Z,6.90
2018-12-13T07:09:25.598Z,6.86
2018-12-13T07:10:25.543Z,6.87
2018-12-13T07:11:25.476Z,6.95
2018-12-13T07:12:25.415Z,6.90
2018-12-13T07:13:25.352Z,6.86
2018-12-13T07:14:25.293Z,6.87
2018-12-13T07:15:25.234Z,6.91
2018-12-13T07:16:25.171Z,6.95
2018-12-13T07:17:25.110Z,6.89
2018-12-13T07:18:25.047Z,6.89
2018-12-13T07:19:24.987Z,6.87
2018-12-13T07:20:26.224Z,6.86
2018-12-13T07:21:24.867Z,6.90
2018-12-13T07:22:24.807Z,6.84
2018-12-13T07:23:24.743Z,6.94
2018-12-13T07:24:24.681Z,6.83
2018-12-13T07:25:24.621Z,6.86
2018-12-13T07:26:24.560Z,6.86
2018-12-13T07:27:24.498Z,6.87
2018-12-13T07:28:24.437Z,6.84
2018-12-13T07:29:24.375Z,6.87
2018-12-13T07:30:24.318Z,6.87
2018-12-13T07:31:24.257Z,6.84
2018-12-13T07:32:24.191Z,6.86
2018-12-13T07:33:24.130Z,6.84
2018-12-13T07:34:24.070Z,6.83
2018-12-13T07:35:24.011Z,6.86
2018-12-13T07:36:23.947Z,6.89
2018-12-13T07:37:23.886Z,6.76
2018-12-13T07:38:23.825Z,6.84
2018-12-13T07:39:23.764Z,6.84
2018-12-13T07:40:23.706Z,6.83
2018-12-13T07:41:23.646Z,6.79
2018-12-13T07:42:23.581Z,6.86
2018-12-13T07:43:23.520Z,6.89
2018-12-13T07:44:23.459Z,6.89
2018-12-13T07:45:23.397Z,6.80
2018-12-13T07:46:23.339Z,6.83
2018-12-13T07:47:23.274Z,6.83
2018-12-13T07:48:23.213Z,6.77
2018-12-13T07:49:23.152Z,6.89
2018-12-13T07:50:23.090Z,6.81
2018-12-13T07:51:23.030Z,6.83
2018-12-13T07:52:22.971Z,6.90
2018-12-13T07:53:22.906Z,6.84
2018-12-13T07:54:22.848Z,6.86
2018-12-13T07:55:22.789Z,6.86
2018-12-13T07:56:22.728Z,6.80
2018-12-13T07:57:22.666Z,6.86
2018-12-13T07:58:22.601Z,6.81
2018-12-13T07:59:22.544Z,6.81
2018-12-13T08:00:22.480Z,6.79
2018-12-13T08:01:22.419Z,6.81
2018-12-13T08:02:22.357Z,6.81
2018-12-13T08:03:22.297Z,6.83
2018-12-13T08:04:22.235Z,6.79
2018-12-13T08:05:22.173Z,6.83
2018-12-13T08:06:22.111Z,6.79
2018-12-13T08:07:22.051Z,6.81
2018-12-13T08:08:21.994Z,6.79
2018-12-13T08:09:21.934Z,6.79
2018-12-13T08:10:21.869Z,6.79
2018-12-13T08:11:21.806Z,6.80
2018-12-13T08:12:21.747Z,6.79
2018-12-13T08:13:21.685Z,6.77
2018-12-13T08:14:21.623Z,6.77
2018-12-13T08:15:21.563Z,6.83
2018-12-13T08:16:21.501Z,6.79
2018-12-13T08:17:21.440Z,6.79
2018-12-13T08:18:21.377Z,6.80
2018-12-13T08:19:21.317Z,6.84
2018-12-13T08:20:21.257Z,6.77
2018-12-13T08:21:21.197Z,6.73
2018-12-13T08:22:21.134Z,6.84
2018-12-13T08:23:21.076Z,6.77
2018-12-13T08:24:21.012Z,6.83
2018-12-13T08:25:20.949Z,6.73
2018-12-13T08:26:20.887Z,6.79
2018-12-13T08:27:20.827Z,6.76
2018-12-13T08:28:20.769Z,6.84
2018-12-13T08:29:20.704Z,6.84
2018-12-13T08:30:20.644Z,6.81
2018-12-13T08:31:20.581Z,6.76
2018-12-13T08:32:20.523Z,6.81
2018-12-13T08:33:20.460Z,6.79
2018-12-13T08:34:20.397Z,6.86
2018-12-13T08:35:20.336Z,6.83
2018-12-13T08:36:20.276Z,6.80
2018-12-13T08:37:20.220Z,6.81
2018-12-13T08:38:20.162Z,6.81
2018-12-13T08:39:20.094Z,6.80
2018-12-13T08:40:20.032Z,6.80
2018-12-13T08:41:19.969Z,6.76
2018-12-13T08:42:19.908Z,6.81
2018-12-13T08:43:19.847Z,6.81
2018-12-13T08:44:19.787Z,6.72
2018-12-13T08:45:19.724Z,6.73
2018-12-13T08:46:19.663Z,6.66
2018-12-13T08:47:19.603Z,6.79
2018-12-13T08:48:19.543Z,6.80
2018-12-13T08:49:19.479Z,6.71
2018-12-13T08:50:19.428Z,6.73
2018-12-13T08:51:19.357Z,6.71
2018-12-13T08:52:19.297Z,6.79
2018-12-13T08:53:19.234Z,6.83
2018-12-13T08:54:19.179Z,6.72
2018-12-13T08:55:19.116Z,6.77
2018-12-13T08:56:19.056Z,6.79
2018-12-13T08:57:18.990Z,6.77
2018-12-13T08:58:18.931Z,6.76
2018-12-13T08:59:18.882Z,6.76
2018-12-13T09:00:18.808Z,6.72
2018-12-13T09:01:18.744Z,6.76
2018-12-13T09:02:18.684Z,6.81
2018-12-13T09:03:18.626Z,6.81
2018-12-13T09:04:18.561Z,6.77
2018-12-13T09:05:18.503Z,6.81
2018-12-13T09:06:18.439Z,6.79
2018-12-13T09:07:18.382Z,6.73
2018-12-13T09:08:18.321Z,6.80
2018-12-13T09:09:18.256Z,6.80
2018-12-13T09:10:18.202Z,6.83
2018-12-13T09:11:18.134Z,6.80
2018-12-13T09:12:18.072Z,6.81
2018-12-13T09:13:18.009Z,6.69
2018-12-13T09:14:17.951Z,6.76
2018-12-13T09:15:17.890Z,6.77
2018-12-13T09:16:17.830Z,6.76
2018-12-13T09:17:17.766Z,6.79
2018-12-13T09:18:17.705Z,6.73
2018-12-13T09:19:17.641Z,6.77
2018-12-13T09:20:17.583Z,6.77
2018-12-13T09:21:17.518Z,6.68
2018-12-13T09:22:17.458Z,6.76
2018-12-13T09:23:17.399Z,6.81
2018-12-13T09:24:17.339Z,6.66
2018-12-13T09:25:17.277Z,6.69
2018-12-13T09:26:17.216Z,6.68
2018-12-13T09:27:17.154Z,6.66
2018-12-13T09:28:17.093Z,6.76
2018-12-13T09:29:17.028Z,6.73
2018-12-13T09:30:16.969Z,6.68
2018-12-13T09:31:16.906Z,6.76
2018-12-13T09:32:16.846Z,6.72
2018-12-13T09:33:16.784Z,6.79
2018-12-13T09:34:16.726Z,6.77
2018-12-13T09:35:16.661Z,6.79
2018-12-13T09:36:16.601Z,6.69
2018-12-13T09:37:16.539Z,6.66
2018-12-13T09:38:16.482Z,6.73
2018-12-13T09:39:16.425Z,6.79
2018-12-13T09:40:16.367Z,6.80
2018-12-13T09:41:16.293Z,6.73
2018-12-13T09:42:16.234Z,6.83
2018-12-13T09:43:16.188Z,6.68
2018-12-13T09:44:16.114Z,6.72
2018-12-13T09:45:16.055Z,6.76
2018-12-13T09:46:15.988Z,6.77
2018-12-13T09:47:15.927Z,6.76
2018-12-13T09:48:15.865Z,6.76
2018-12-13T09:49:15.805Z,6.73
2018-12-13T09:50:15.742Z,6.76
2018-12-13T09:51:15.681Z,6.80
2018-12-13T09:52:15.631Z,6.76
2018-12-13T09:53:15.558Z,6.84
2018-12-13T09:54:15.496Z,6.76
2018-12-13T09:55:15.438Z,6.76
2018-12-13T09:56:15.375Z,6.77
2018-12-13T09:57:15.313Z,6.73
2018-12-13T09:58:15.255Z,6.76
2018-12-13T09:59:15.191Z,6.76
2018-12-13T10:00:15.130Z,6.77
2018-12-13T10:01:15.067Z,6.80
2018-12-13T10:02:15.006Z,6.73
2018-12-13T10:03:14.944Z,6.77
2018-12-13T10:04:14.883Z,6.73
2018-12-13T10:05:14.822Z,6.69
2018-12-13T10:06:14.761Z,6.77
2018-12-13T10:07:14.707Z,6.66
2018-12-13T10:08:14.638Z,6.68
2018-12-13T10:09:14.577Z,6.77
2018-12-13T10:10:14.515Z,6.69
2018-12-13T10:11:14.456Z,6.80
2018-12-13T10:12:14.402Z,6.79
2018-12-13T10:13:14.341Z,6.79
2018-12-13T10:14:14.272Z,6.76
2018-12-13T10:15:14.215Z,6.73
2018-12-13T10:16:14.147Z,6.79
2018-12-13T10:17:14.929Z,6.73
2018-12-13T10:18:14.029Z,6.76
2018-12-13T10:19:13.965Z,6.73
2018-12-13T10:20:13.902Z,6.77
2018-12-13T10:21:13.843Z,6.76
2018-12-13T10:22:13.780Z,6.79
2018-12-13T10:23:13.722Z,6.81
2018-12-13T10:24:13.660Z,6.79
2018-12-13T10:25:13.596Z,6.80
2018-12-13T10:26:13.535Z,6.81
2018-12-13T10:27:13.478Z,6.72
2018-12-13T10:28:13.413Z,6.81
2018-12-13T10:29:13.351Z,6.81
2018-12-13T10:30:13.288Z,6.79
2018-12-13T10:31:13.234Z,6.83
2018-12-13T10:32:13.169Z,6.79
2018-12-13T10:33:13.109Z,6.77
2018-12-13T10:34:13.050Z,6.81
2018-12-13T10:35:12.985Z,6.81
2018-12-13T10:36:12.922Z,6.84
2018-12-13T10:37:12.860Z,6.79
2018-12-13T10:38:12.799Z,6.73
2018-12-13T10:39:12.740Z,6.81
2018-12-13T10:40:12.676Z,6.80
2018-12-13T10:41:12.614Z,6.79
2018-12-13T10:42:12.556Z,6.81
2018-12-13T10:43:12.492Z,6.80
2018-12-13T10:44:12.432Z,6.73
2018-12-13T10:45:12.369Z,6.76
2018-12-13T10:46:12.308Z,6.81
2018-12-13T10:47:12.247Z,6.76
2018-12-13T10:48:12.185Z,6.77
2018-12-13T10:49:12.124Z,6.73
2018-12-13T10:50:12.066Z,6.81
2018-12-13T10:51:12.006Z,6.77
2018-12-13T10:52:11.945Z,6.76
2018-12-13T10:53:11.878Z,6.80
2018-12-13T10:54:11.819Z,6.80
2018-12-13T10:55:11.756Z,6.77
2018-12-13T10:56:11.697Z,6.76
2018-12-13T10:57:11.635Z,6.73
2018-12-13T10:58:11.572Z,6.79
2018-12-13T10:59:11.511Z,6.73
2018-12-13T11:00:11.449Z,6.77
2018-12-13T11:01:11.393Z,6.72
2018-12-13T11:02:11.327Z,6.66
2018-12-13T11:03:11.265Z,6.73
2018-12-13T11:04:11.206Z,6.66
2018-12-13T11:05:11.142Z,6.68
2018-12-13T11:06:11.080Z,6.73
2018-12-13T11:07:11.025Z,6.73
2018-12-13T11:08:10.959Z,6.68
2018-12-13T11:09:10.897Z,6.72
2018-12-13T11:10:10.840Z,6.79
2018-12-13T11:11:10.774Z,6.77
2018-12-13T11:12:10.713Z,6.81
2018-12-13T11:13:10.654Z,6.63
2018-12-13T11:14:10.590Z,6.73
2018-12-13T11:15:10.529Z,6.77
2018-12-13T11:16:10.474Z,6.79
2018-12-13T11:17:10.408Z,6.79
2018-12-13T11:18:10.345Z,6.69
2018-12-13T11:19:10.283Z,6.77
2018-12-13T11:20:10.222Z,6.77
2018-12-13T11:21:10.161Z,6.65
2018-12-13T11:22:10.100Z,6.73
2018-12-13T11:23:10.042Z,6.71
2018-12-13T11:24:09.981Z,6.80
2018-12-13T11:25:09.918Z,6.76
2018-12-13T11:26:09.861Z,6.77
2018-12-13T11:27:09.793Z,6.81
2018-12-13T11:28:09.735Z,6.76
2018-12-13T11:29:09.670Z,6.72
2018-12-13T11:30:09.677Z,6.76
2018-12-13T11:31:09.563Z,6.79
2018-12-13T11:32:09.487Z,6.76
2018-12-13T11:33:09.426Z,6.73
2018-12-13T11:34:09.363Z,6.68
2018-12-13T11:35:09.302Z,6.71
2018-12-13T11:36:09.240Z,6.77
2018-12-13T11:37:09.179Z,6.66
2018-12-13T11:38:09.119Z,6.66
2018-12-13T11:39:09.063Z,6.69
2018-12-13T11:40:08.995Z,6.66
2018-12-13T11:41:08.933Z,6.71
2018-12-13T11:42:08.877Z,6.71
2018-12-13T11:43:08.814Z,6.65
2018-12-13T11:44:08.750Z,6.73
2018-12-13T11:45:08.692Z,6.73
2018-12-13T11:46:08.627Z,6.71
2018-12-13T11:47:08.570Z,6.65
2018-12-13T11:48:08.504Z,6.66
2018-12-13T11:49:12.123Z,6.71
2018-12-13T11:50:08.385Z,6.66
2018-12-13T11:51:08.320Z,6.68
2018-12-13T11:52:08.259Z,6.66
2018-12-13T11:53:08.198Z,6.66
2018-12-13T11:54:08.141Z,6.65
2018-12-13T11:55:08.076Z,6.72
2018-12-13T11:56:08.015Z,6.77
2018-12-13T11:57:07.953Z,6.69
2018-12-13T11:58:07.892Z,6.80
2018-12-13T11:59:07.831Z,6.65
2018-12-13T12:00:07.769Z,6.76
2018-12-13T12:01:07.709Z,6.69
2018-12-13T12:02:07.650Z,6.73
2018-12-13T12:03:07.587Z,6.73
2018-12-13T12:04:07.523Z,6.76
2018-12-13T12:05:07.463Z,6.68
2018-12-13T12:06:07.401Z,6.66
2018-12-13T12:07:07.339Z,6.76
2018-12-13T12:08:07.279Z,6.66
2018-12-13T12:09:12.172Z,6.72
2018-12-13T12:10:07.155Z,6.68
2018-12-13T12:11:07.097Z,6.69
2018-12-13T12:12:07.032Z,6.65
2018-12-13T12:13:06.972Z,6.73
2018-12-13T12:14:06.911Z,6.76
2018-12-13T12:15:06.848Z,6.69
2018-12-13T12:16:06.789Z,6.66
2018-12-13T12:17:06.725Z,6.66
2018-12-13T12:18:06.664Z,6.73
2018-12-13T12:19:06.605Z,6.69
2018-12-13T12:20:06.540Z,6.72
2018-12-13T12:21:06.479Z,6.68
2018-12-13T12:22:06.424Z,6.72
2018-12-13T12:23:06.361Z,6.66
2018-12-13T12:24:06.296Z,6.72
2018-12-13T12:25:06.234Z,6.76
2018-12-13T12:26:06.174Z,6.72
2018-12-13T12:27:06.113Z,6.69
2018-12-13T12:28:06.052Z,6.69
2018-12-13T12:29:05.990Z,6.65
2018-12-13T12:30:05.928Z,6.63
2018-12-13T12:31:05.873Z,6.80
2018-12-13T12:32:05.808Z,6.65
2018-12-13T12:33:05.746Z,6.69
2018-12-13T12:34:05.682Z,6.68
2018-12-13T12:35:05.621Z,6.65
2018-12-13T12:36:05.563Z,6.66
2018-12-13T12:37:05.499Z,6.69
2018-12-13T12:38:05.438Z,6.68
2018-12-13T12:39:05.377Z,6.69
2018-12-13T12:40:05.316Z,6.71
2018-12-13T12:41:05.252Z,6.65
2018-12-13T12:42:05.200Z,6.66
2018-12-13T12:43:05.130Z,6.66
2018-12-13T12:44:05.069Z,6.65
2018-12-13T12:45:05.008Z,6.65
2018-12-13T12:46:04.949Z,6.69
2018-12-13T12:47:04.885Z,6.63
2018-12-13T12:48:04.823Z,6.68
2018-12-13T12:49:04.764Z,6.71
2018-12-13T12:50:04.701Z,6.63
2018-12-13T12:51:04.640Z,6.72
2018-12-13T12:52:04.578Z,6.76
2018-12-13T12:53:04.516Z,6.76
2018-12-13T12:54:04.456Z,6.65
2018-12-13T12:55:04.397Z,6.73
2018-12-13T12:56:04.337Z,6.71
2018-12-13T12:57:04.269Z,6.68
2018-12-13T12:58:04.210Z,6.69
2018-12-13T12:59:04.150Z,6.72
2018-12-13T13:00:04.093Z,6.76
2018-12-13T13:01:04.027Z,6.72
2018-12-13T13:02:03.965Z,6.71
2018-12-13T13:03:03.903Z,6.76
2018-12-13T13:04:03.847Z,6.72
2018-12-13T13:05:03.781Z,6.71
2018-12-13T13:06:03.719Z,6.73
2018-12-13T13:07:03.660Z,6.63
2018-12-13T13:08:03.605Z,6.71
2018-12-13T13:09:03.535Z,6.72
2018-12-13T13:10:03.476Z,6.71
2018-12-13T13:11:03.538Z,6.65
2018-12-13T13:12:03.354Z,6.72
2018-12-13T13:13:03.292Z,6.77
2018-12-13T13:14:03.228Z,6.62
2018-12-13T13:15:03.171Z,6.69
2018-12-13T13:16:03.106Z,6.73
2018-12-13T13:17:03.045Z,6.68
2018-12-13T13:18:02.984Z,6.71